Time;durP1;ratioP1;P1;durP2;ratioP2;P2;SDS_P1;SDS_P2;PMS_P1;PMS_P2;Temp;Humidity;BMP_temperature;BMP_pressure;BME280_temperature;BME280_humidity;BME280_pressure;Samples;Min_cycle;Max_cycle;Signal;HPM_P1;HPM_P2
2022/01/18 00:01:54;;;;;;;20.63;10.23;;;-4.40;99.90;;;;;;5097287;28;20519;-78
2022/01/18 00:04:21;;;;;;;24.03;10.77;;;-3.80;99.90;;;;;;5095950;28;20166;-79
2022/01/18 00:06:50;;;;;;;23.50;12.30;;;-3.40;99.90;;;;;;5096665;28;20170;-79
2022/01/18 00:09:20;;;;;;;22.93;12.17;;;-5.30;99.90;;;;;;5096087;28;20254;-80
2022/01/18 00:11:54;;;;;;;22.93;11.63;;;-5.60;99.90;;;;;;5097029;28;20199;-80
2022/01/18 00:14:40;;;;;;;26.47;11.67;;;-3.80;99.90;;;;;;5096873;28;20246;-79
2022/01/18 00:17:40;;;;;;;20.10;11.53;;;-5.20;99.90;;;;;;5093668;28;20224;-79
2022/01/18 00:20:05;;;;;;;18.03;10.47;;;-6.50;99.90;;;;;;5096637;28;20177;-78
2022/01/18 00:22:31;;;;;;;18.17;12.30;;;-5.90;99.90;;;;;;5095966;28;20194;-79
2022/01/18 00:24:59;;;;;;;30.20;12.27;;;-6.00;99.90;;;;;;5096636;28;20174;-80
2022/01/18 00:27:25;;;;;;;22.33;12.40;;;-5.90;99.90;;;;;;5095748;28;20469;-79
2022/01/18 00:30:04;;;;;;;24.93;13.40;;;-6.10;99.90;;;;;;5096570;28;20163;-79
2022/01/18 00:32:55;;;;;;;26.90;12.40;;;-6.40;99.90;;;;;;5095211;28;20268;-79
2022/01/18 00:35:21;;;;;;;26.43;13.97;;;-6.60;99.90;;;;;;5096252;28;20171;-78
2022/01/18 00:37:53;;;;;;;25.17;14.97;;;-6.10;99.90;;;;;;5096189;28;20170;-80
2022/01/18 00:40:19;;;;;;;25.50;14.20;;;-5.90;99.90;;;;;;5096563;28;20481;-79
2022/01/18 00:42:44;;;;;;;32.40;17.17;;;-5.80;99.90;;;;;;5096219;28;20224;-79
2022/01/18 00:45:10;;;;;;;38.27;16.77;;;-5.70;99.90;;;;;;5096163;28;20492;-78
2022/01/18 00:47:36;;;;;;;32.33;14.87;;;-6.70;99.90;;;;;;5096223;28;20512;-79
2022/01/18 00:50:03;;;;;;;33.53;17.23;;;-5.90;99.90;;;;;;5095024;28;20177;-80
2022/01/18 00:52:33;;;;;;;27.73;14.30;;;-5.90;99.90;;;;;;5096073;28;20589;-79
2022/01/18 00:55:01;;;;;;;33.03;17.77;;;-6.30;99.90;;;;;;5096238;28;20171;-80
2022/01/18 00:57:27;;;;;;;27.60;16.87;;;-6.20;99.90;;;;;;5096221;28;20180;-79
2022/01/18 00:59:53;;;;;;;39.93;17.17;;;-5.90;99.90;;;;;;5096116;28;20178;-80
2022/01/18 01:02:19;;;;;;;50.63;18.33;;;-4.40;99.90;;;;;;5095940;28;20502;-81
2022/01/18 01:04:49;;;;;;;33.33;16.57;;;-4.00;99.90;;;;;;5094708;28;20194;-80
2022/01/18 01:07:21;;;;;;;45.60;17.50;;;-4.10;99.90;;;;;;5094950;28;20170;-79
2022/01/18 01:09:47;;;;;;;28.40;17.07;;;-6.20;99.90;;;;;;5096270;28;20167;-80
2022/01/18 01:12:14;;;;;;;40.47;15.30;;;-5.90;99.90;;;;;;5095866;28;20182;-80
2022/01/18 01:14:42;;;;;;;22.63;15.77;;;-5.70;99.90;;;;;;5096005;28;20169;-79
2022/01/18 01:46:26;;;;;;;41.87;17.47;;;-6.90;99.90;;;;;;5099964;28;20171;-78
2022/01/18 01:48:55;;;;;;;34.50;18.33;;;-4.20;99.90;;;;;;5099246;28;20170;-78
2022/01/18 01:51:28;;;;;;;39.47;16.97;;;-3.90;99.90;;;;;;5099662;28;20241;-77
2022/01/18 01:53:55;;;;;;;32.73;17.23;;;-4.20;99.90;;;;;;5098584;28;20467;-77
2022/01/18 01:56:21;;;;;;;39.00;17.07;;;-3.40;99.90;;;;;;5099630;28;20167;-76
2022/01/18 01:58:47;;;;;;;35.03;15.47;;;-4.50;99.90;;;;;;5099410;28;20551;-79
2022/01/18 02:01:12;;;;;;;31.53;16.83;;;-4.20;99.90;;;;;;5099446;28;20578;-79
2022/01/18 02:03:38;;;;;;;42.47;16.60;;;-4.90;99.90;;;;;;5099044;28;20171;-79
2022/01/18 02:06:04;;;;;;;34.13;17.63;;;-4.70;99.90;;;;;;5099572;28;20171;-79
2022/01/18 02:08:30;;;;;;;46.93;20.50;;;-3.70;99.90;;;;;;5098993;28;20178;-80
2022/01/18 02:10:55;;;;;;;37.57;17.50;;;-3.30;99.90;;;;;;5099384;28;20496;-78
2022/01/18 02:13:21;;;;;;;52.60;19.93;;;-6.80;99.90;;;;;;5099286;28;20212;-79
2022/01/18 02:23:45;;;;;;;39.70;19.30;;;-5.10;99.90;;;;;;5099114;28;20571;-81
2022/01/18 02:26:11;;;;;;;48.00;19.50;;;-4.90;99.90;;;;;;5098838;28;20170;-78
2022/01/18 02:28:37;;;;;;;39.00;20.17;;;-4.60;99.90;;;;;;5097875;28;20538;-80
2022/01/18 02:31:02;;;;;;;45.27;18.77;;;-6.70;99.90;;;;;;5101671;28;20503;-80
2022/01/18 02:33:28;;;;;;;42.73;19.83;;;-3.20;99.90;;;;;;5117579;28;20174;-81
2022/01/18 02:35:54;;;;;;;45.77;18.73;;;-5.80;99.90;;;;;;5099433;28;20167;-80
2022/01/18 02:38:22;;;;;;;35.87;19.83;;;-5.90;99.90;;;;;;5098449;28;20182;-80
2022/01/18 02:40:48;;;;;;;33.73;18.83;;;-6.00;99.90;;;;;;5098783;28;20171;-80
2022/01/18 02:45:58;;;;;;;42.57;19.37;;;-5.50;99.90;;;;;;5098332;28;20166;-81
2022/01/18 02:48:25;;;;;;;35.20;18.80;;;-5.90;99.90;;;;;;5098407;28;20171;-79
2022/01/18 02:50:51;;;;;;;46.53;19.07;;;-6.10;99.90;;;;;;5097393;28;20547;-80
2022/01/18 02:53:17;;;;;;;41.80;19.53;;;-5.50;99.90;;;;;;5097313;28;20163;-80
2022/01/18 02:55:48;;;;;;;38.23;19.20;;;-6.60;99.90;;;;;;5098134;28;20171;-80
2022/01/18 02:58:21;;;;;;;60.60;21.30;;;-6.50;99.90;;;;;;5098349;28;20569;-80
2022/01/18 03:03:36;;;;;;;41.40;21.03;;;-4.50;99.90;;;;;;5098269;28;20501;-78
2022/01/18 03:06:06;;;;;;;36.37;18.30;;;-4.10;99.90;;;;;;5098085;28;20174;-78
2022/01/18 03:08:33;;;;;;;44.10;20.83;;;-5.30;99.90;;;;;;5097993;28;20507;-80
2022/01/18 03:11:00;;;;;;;33.50;18.13;;;-5.70;99.90;;;;;;5097828;28;20198;-79
2022/01/18 03:13:26;;;;;;;37.60;18.50;;;-3.30;99.90;;;;;;5098137;28;20513;-79
2022/01/18 03:15:52;;;;;;;38.07;21.00;;;-5.90;99.90;;;;;;5096674;28;20494;-76
2022/01/18 03:18:17;;;;;;;40.53;19.63;;;-4.70;99.90;;;;;;5097974;28;20200;-79
2022/01/18 03:20:43;;;;;;;36.13;19.90;;;-6.30;99.90;;;;;;5097802;28;20580;-78
2022/01/18 03:23:18;;;;;;;33.13;19.27;;;-6.50;99.90;;;;;;5097724;28;20242;-79
2022/01/18 03:25:56;;;;;;;42.80;20.93;;;-5.80;99.90;;;;;;5097840;28;20570;-79
2022/01/18 03:28:23;;;;;;;36.70;20.37;;;-5.80;99.90;;;;;;5097875;28;20158;-79
2022/01/18 03:30:54;;;;;;;51.53;22.33;;;-6.50;99.90;;;;;;5096202;28;20179;-79
2022/01/18 03:33:22;;;;;;;44.70;21.97;;;-6.20;99.90;;;;;;5097563;28;20472;-79
2022/01/18 03:35:50;;;;;;;45.53;20.70;;;-6.20;99.90;;;;;;5096463;28;20179;-80
2022/01/18 03:38:18;;;;;;;33.47;19.73;;;-5.40;99.90;;;;;;5097566;28;20202;-80
2022/01/18 03:40:44;;;;;;;30.03;18.53;;;-3.90;99.90;;;;;;5097485;28;20178;-79
2022/01/18 03:43:12;;;;;;;35.93;20.73;;;-5.40;99.90;;;;;;5097284;28;20197;-80
2022/01/18 03:45:43;;;;;;;44.60;20.13;;;-3.10;99.90;;;;;;5097005;28;20163;-81
2022/01/18 03:48:24;;;;;;;36.33;20.10;;;-5.80;99.90;;;;;;5097524;28;20173;-81
2022/01/18 03:50:50;;;;;;;41.03;19.67;;;-5.60;99.90;;;;;;5097211;28;20234;-80
2022/01/18 03:53:18;;;;;;;42.37;20.83;;;-5.90;99.90;;;;;;5097339;28;20194;-81
2022/01/18 03:55:43;;;;;;;34.40;19.23;;;-4.40;99.90;;;;;;5096087;28;20177;-81
2022/01/18 03:58:09;;;;;;;40.23;20.77;;;-5.40;99.90;;;;;;5097295;28;20245;-81
2022/01/18 04:00:35;;;;;;;34.83;21.27;;;-5.50;99.90;;;;;;5096828;28;20167;-81
2022/01/18 04:03:01;;;;;;;34.90;20.13;;;-5.50;99.90;;;;;;5096997;28;20478;-78
2022/01/18 04:05:27;;;;;;;38.53;19.33;;;-5.80;99.90;;;;;;5096659;28;20561;-80
2022/01/18 04:07:52;;;;;;;41.90;20.03;;;-6.40;99.90;;;;;;5097053;28;20167;-80
2022/01/18 04:10:18;;;;;;;48.17;19.73;;;-5.70;99.90;;;;;;5096737;28;20170;-80
2022/01/18 04:12:44;;;;;;;50.80;21.73;;;-4.40;99.90;;;;;;5097024;28;20592;-80
2022/01/18 04:15:13;;;;;;;34.83;19.30;;;-5.40;99.90;;;;;;5095526;28;20608;-80
2022/01/18 04:25:55;;;;;;;40.47;20.70;;;-5.20;99.90;;;;;;5096891;28;20219;-80
2022/01/18 04:30:48;;;;;;;36.63;20.87;;;-5.30;99.90;;;;;;5096651;28;20308;-81
2022/01/18 04:33:14;;;;;;;40.27;21.23;;;-3.50;99.90;;;;;;5096377;28;20569;-80
2022/01/18 04:35:40;;;;;;;47.63;20.70;;;-4.40;99.90;;;;;;5096454;28;20163;-80
2022/01/18 04:38:05;;;;;;;36.80;18.70;;;-5.20;99.90;;;;;;5096316;28;20231;-81
2022/01/18 04:40:33;;;;;;;42.97;19.67;;;-4.90;99.90;;;;;;5112368;28;20181;-81
2022/01/18 04:43:07;;;;;;;37.13;20.80;;;-2.90;99.90;;;;;;5095846;28;20191;-80
2022/01/18 04:48:31;;;;;;;34.77;19.33;;;-4.20;99.90;;;;;;5096266;28;20254;-81
2022/01/18 04:51:11;;;;;;;33.50;19.23;;;-4.20;99.90;;;;;;5096181;28;20170;-81
2022/01/18 04:53:42;;;;;;;35.50;19.93;;;-5.10;99.90;;;;;;5096379;28;20192;-79
2022/01/18 04:56:15;;;;;;;39.13;19.77;;;-4.50;99.90;;;;;;5096073;28;20169;-81
2022/01/18 04:58:41;;;;;;;41.23;21.90;;;-2.60;99.90;;;;;;5096146;28;20258;-81
2022/01/18 05:01:09;;;;;;;34.07;20.43;;;-2.60;99.90;;;;;;5095942;28;20263;-81
2022/01/18 05:03:35;;;;;;;46.47;23.07;;;-4.10;99.90;;;;;;5095962;28;20201;-77
2022/01/18 05:06:08;;;;;;;52.03;22.70;;;-4.80;99.90;;;;;;5096024;28;20163;-80
2022/01/18 05:08:35;;;;;;;46.70;21.33;;;-4.20;99.90;;;;;;5095906;28;20257;-80
2022/01/18 05:11:01;;;;;;;49.77;20.87;;;-4.40;99.90;;;;;;5095630;28;20182;-81
2022/01/18 05:16:27;;;;;;;40.83;20.47;;;-2.00;99.90;;;;;;5095663;28;20524;-80
2022/01/18 05:24:15;;;;;;;47.83;21.97;;;-4.20;99.90;;;;;;5096121;28;20196;-80
2022/01/18 05:26:41;;;;;;;51.70;22.93;;;-5.20;99.90;;;;;;5095686;28;20162;-81
2022/01/18 05:29:07;;;;;;;38.50;21.07;;;-5.20;99.90;;;;;;5095688;28;20171;-78
2022/01/18 05:31:32;;;;;;;29.13;17.80;;;-4.30;99.90;;;;;;5095936;28;20170;-80
2022/01/18 05:33:58;;;;;;;34.57;20.93;;;-3.60;99.90;;;;;;5095661;28;20175;-80
2022/01/18 05:36:24;;;;;;;39.57;21.63;;;-4.70;99.90;;;;;;5095828;28;20202;-79
2022/01/18 05:38:50;;;;;;;46.93;23.17;;;-3.10;99.90;;;;;;5095478;28;20186;-79
2022/01/18 05:41:16;;;;;;;40.27;22.23;;;-4.80;99.90;;;;;;5095400;28;20200;-79
2022/01/18 05:43:42;;;;;;;47.77;20.43;;;-5.30;99.90;;;;;;5095564;28;20206;-80
2022/01/18 05:46:08;;;;;;;42.33;22.37;;;-4.20;99.90;;;;;;5095689;28;20228;-79
2022/01/18 05:48:33;;;;;;;45.50;22.30;;;-2.50;99.90;;;;;;5095630;28;20178;-80
2022/01/18 05:50:59;;;;;;;48.30;22.43;;;-4.30;99.90;;;;;;5095624;28;20167;-79
2022/01/18 05:53:39;;;;;;;36.77;22.07;;;-2.70;99.90;;;;;;5111704;28;20575;-79
2022/01/18 05:56:08;;;;;;;34.53;20.87;;;-4.20;99.90;;;;;;5095299;28;20167;-80
2022/01/18 05:58:33;;;;;;;39.67;20.73;;;-4.20;99.90;;;;;;5094416;28;20179;-79
2022/01/18 06:00:59;;;;;;;34.60;19.43;;;-3.40;99.90;;;;;;5094454;28;20191;-78
2022/01/18 06:03:38;;;;;;;43.87;22.47;;;-5.00;99.90;;;;;;5095385;28;20286;-79
2022/01/18 06:08:49;;;;;;;35.27;20.60;;;-5.00;99.90;;;;;;5094984;28;20523;-77
2022/01/18 06:11:14;;;;;;;33.87;20.33;;;-6.90;99.90;;;;;;5094220;28;20178;-81
2022/01/18 06:13:40;;;;;;;34.87;19.03;;;-4.60;99.90;;;;;;5095474;28;20175;-77
2022/01/18 06:16:06;;;;;;;38.43;21.23;;;-4.50;99.90;;;;;;5095634;28;20194;-80
2022/01/18 06:18:32;;;;;;;37.47;17.63;;;-2.60;99.90;;;;;;5095626;28;20260;-80
2022/01/18 06:20:58;;;;;;;35.07;17.13;;;-2.60;99.90;;;;;;5095500;28;20186;-79
2022/01/18 06:23:24;;;;;;;51.73;20.80;;;-2.80;99.90;;;;;;5094904;28;20202;-76
2022/01/18 06:25:50;;;;;;;28.43;19.10;;;-4.00;99.90;;;;;;5095246;28;20166;-78
2022/01/18 06:28:16;;;;;;;37.37;17.33;;;-4.60;99.90;;;;;;5096359;28;20173;-77
2022/01/18 06:30:42;;;;;;;36.20;18.13;;;-4.80;99.90;;;;;;5098936;28;20194;-78
2022/01/18 06:33:07;;;;;;;37.07;21.23;;;-4.60;99.90;;;;;;5098866;28;20541;-77
2022/01/18 06:35:33;;;;;;;39.30;19.70;;;-3.50;99.90;;;;;;5098735;28;20170;-78
2022/01/18 06:37:59;;;;;;;40.20;19.93;;;-2.70;99.90;;;;;;5098264;28;20190;-78
2022/01/18 06:40:26;;;;;;;40.50;22.33;;;-4.80;99.90;;;;;;5098552;28;20178;-77
2022/01/18 06:42:52;;;;;;;40.00;21.07;;;-4.70;99.90;;;;;;5098506;28;20206;-76
2022/01/18 06:45:18;;;;;;;50.60;23.37;;;-4.60;99.90;;;;;;5098423;28;20265;-80
2022/01/18 06:47:44;;;;;;;42.67;24.23;;;-4.30;99.90;;;;;;5098611;28;20185;-79
2022/01/18 06:50:11;;;;;;;50.77;24.97;;;-4.20;99.90;;;;;;5098538;28;20258;-77
2022/01/18 06:52:37;;;;;;;50.07;26.40;;;-3.80;99.90;;;;;;5099014;28;20636;-80
2022/01/18 06:55:05;;;;;;;60.73;28.03;;;-2.90;99.90;;;;;;5100263;28;20227;-75
2022/01/18 06:57:31;;;;;;;46.60;23.57;;;-5.10;99.90;;;;;;5098319;28;20174;-79
2022/01/18 06:59:57;;;;;;;46.83;26.83;;;-4.00;99.90;;;;;;5082390;28;20625;-76
2022/01/18 07:02:28;;;;;;;76.93;29.43;;;-4.10;99.90;;;;;;5085811;28;20602;-79
2022/01/18 07:04:53;;;;;;;56.20;24.83;;;-5.10;99.90;;;;;;5096636;28;20582;-78
2022/01/18 07:07:19;;;;;;;51.90;27.03;;;-3.10;99.90;;;;;;5097187;28;20181;-77
2022/01/18 07:09:45;;;;;;;47.13;26.73;;;-4.40;99.90;;;;;;5087076;28;20175;-77
2022/01/18 07:12:12;;;;;;;53.90;26.60;;;-5.90;99.90;;;;;;5077372;28;20210;-80
2022/01/18 07:14:41;;;;;;;54.63;26.90;;;-4.00;99.90;;;;;;5076949;28;20306;-77
2022/01/18 07:17:08;;;;;;;55.73;26.23;;;-3.60;99.90;;;;;;5082245;28;20187;-78
2022/01/18 07:19:34;;;;;;;70.30;26.93;;;-4.80;99.90;;;;;;5077128;28;20661;-77
2022/01/18 07:22:00;;;;;;;57.40;25.80;;;-5.40;99.90;;;;;;5076933;28;20191;-78
2022/01/18 07:24:44;;;;;;;52.87;24.23;;;-3.90;99.90;;;;;;5075257;28;20183;-81
2022/01/18 07:27:12;;;;;;;58.57;25.90;;;-5.30;99.90;;;;;;5077030;28;20171;-78
2022/01/18 07:29:41;;;;;;;54.37;24.50;;;-4.50;99.90;;;;;;5088552;28;20200;-80
2022/01/18 07:32:07;;;;;;;58.93;25.10;;;-3.60;99.90;;;;;;5096825;28;20197;-77
2022/01/18 07:34:38;;;;;;;49.63;25.03;;;-5.20;99.90;;;;;;5096651;28;20174;-75
2022/01/18 07:37:04;;;;;;;53.13;25.33;;;-4.00;99.90;;;;;;5096738;28;20194;-74
2022/01/18 07:39:38;;;;;;;64.37;27.57;;;-5.00;99.90;;;;;;5083510;28;20605;-74
2022/01/18 07:42:05;;;;;;;43.77;23.80;;;-5.20;99.90;;;;;;5073085;28;20199;-77
2022/01/18 07:44:31;;;;;;;65.47;26.87;;;-5.10;99.90;;;;;;5073700;28;20321;-74
2022/01/18 07:46:58;;;;;;;59.00;24.97;;;-6.00;99.90;;;;;;5076290;28;20301;-77
2022/01/18 07:49:23;;;;;;;58.27;25.40;;;-5.70;99.90;;;;;;5095172;28;20178;-75
2022/01/18 07:51:50;;;;;;;54.27;25.87;;;-6.10;99.90;;;;;;5095151;28;20195;-75
2022/01/18 07:54:16;;;;;;;61.97;23.17;;;-5.90;99.90;;;;;;5096096;28;20174;-76
2022/01/18 07:56:44;;;;;;;43.73;22.90;;;-6.00;99.90;;;;;;5095533;28;20209;-75
2022/01/18 07:59:11;;;;;;;45.73;22.73;;;-5.50;99.90;;;;;;5089282;28;20187;-76
2022/01/18 08:01:38;;;;;;;47.37;25.10;;;-5.00;99.90;;;;;;5095421;28;20539;-78
2022/01/18 08:04:04;;;;;;;33.30;18.60;;;-5.80;99.90;;;;;;5096517;28;20177;-77
2022/01/18 08:06:30;;;;;;;63.27;24.83;;;-6.10;99.90;;;;;;5069938;28;20262;-76
2022/01/18 08:08:56;;;;;;;60.73;25.13;;;-5.40;99.90;;;;;;5075367;28;20186;-75
2022/01/18 08:11:22;;;;;;;70.10;27.90;;;-5.80;99.90;;;;;;5075052;28;20492;-76
2022/01/18 08:13:49;;;;;;;57.30;24.93;;;-4.20;99.90;;;;;;5084454;28;20190;-77
2022/01/18 08:16:46;;;;;;;66.90;25.37;;;-5.60;99.90;;;;;;5096041;28;20177;-76
2022/01/18 08:19:09;;;;;;;67.17;28.07;;;-6.20;99.90;;;;;;5093690;28;20181;-74
2022/01/18 08:21:35;;;;;;;67.13;28.07;;;-6.50;99.90;;;;;;5074730;28;20187;-73
2022/01/18 08:24:01;;;;;;;71.03;26.97;;;-6.10;99.90;;;;;;5094894;28;20494;-75
2022/01/18 08:26:26;;;;;;;85.27;27.63;;;-6.50;99.90;;;;;;5095592;28;20170;-77
2022/01/18 08:28:52;;;;;;;67.93;27.47;;;-4.90;99.90;;;;;;5089515;28;20178;-76
2022/01/18 08:31:18;;;;;;;83.57;31.70;;;-4.30;99.90;;;;;;5074701;28;20178;-74
2022/01/18 08:33:44;;;;;;;90.47;31.47;;;-5.70;99.90;;;;;;5089913;28;20190;-77
2022/01/18 08:36:09;;;;;;;102.83;32.80;;;-5.70;99.90;;;;;;5094330;28;20189;-75
2022/01/18 08:38:37;;;;;;;70.37;27.67;;;-6.10;99.90;;;;;;5094440;28;20223;-78
2022/01/18 08:41:03;;;;;;;67.00;27.50;;;-6.30;99.90;;;;;;5093790;28;20315;-74
2022/01/18 08:43:33;;;;;;;69.60;24.53;;;-5.30;99.90;;;;;;5083757;28;20207;-74
2022/01/18 08:46:06;;;;;;;51.43;22.93;;;-6.10;99.90;;;;;;5074257;28;20183;-74
2022/01/18 08:48:32;;;;;;;52.20;24.60;;;-6.20;99.90;;;;;;5074492;28;20175;-75
2022/01/18 08:50:59;;;;;;;55.30;20.93;;;-6.50;99.90;;;;;;5073642;28;20587;-75
2022/01/18 08:53:26;;;;;;;49.17;21.37;;;-6.00;99.90;;;;;;5088752;28;20161;-75
2022/01/18 08:55:52;;;;;;;63.70;22.67;;;-7.40;99.90;;;;;;5079292;28;20187;-75
2022/01/18 08:58:20;;;;;;;55.77;21.90;;;-6.40;99.90;;;;;;5073802;28;20536;-76
2022/01/18 09:00:46;;;;;;;56.30;24.57;;;-7.30;99.90;;;;;;5074357;28;20514;-77
2022/01/18 09:03:12;;;;;;;80.20;24.63;;;-6.80;99.90;;;;;;5078481;28;20192;-77
2022/01/18 09:05:38;;;;;;;73.20;24.17;;;-6.30;99.90;;;;;;5093674;28;20269;-74
2022/01/18 09:08:08;;;;;;;53.90;22.97;;;-3.90;99.90;;;;;;5094026;28;20600;-76
2022/01/18 09:10:34;;;;;;;59.40;22.80;;;-6.00;99.90;;;;;;5093710;28;20183;-76
2022/01/18 09:13:00;;;;;;;58.97;20.67;;;-6.40;99.90;;;;;;5077543;28;20191;-75
2022/01/18 09:15:26;;;;;;;43.70;19.60;;;-6.60;99.90;;;;;;5073500;28;20182;-75
2022/01/18 09:17:52;;;;;;;54.37;19.93;;;-6.70;99.90;;;;;;5073720;28;20206;-75
2022/01/18 09:20:19;;;;;;;52.53;18.73;;;-6.00;99.90;;;;;;5073634;28;20187;-76
2022/01/18 09:22:52;;;;;;;55.20;19.33;;;-6.40;99.90;;;;;;5074258;28;20210;-75
2022/01/18 09:25:24;;;;;;;43.87;19.27;;;-6.70;99.90;;;;;;5087684;28;20177;-75
2022/01/18 09:27:51;;;;;;;56.00;21.30;;;-6.80;99.90;;;;;;5094203;28;20210;-75
2022/01/18 09:30:17;;;;;;;50.30;20.03;;;-6.70;99.90;;;;;;5081235;28;20173;-76
2022/01/18 09:32:44;;;;;;;38.80;18.13;;;-6.70;99.90;;;;;;5090646;28;20551;-77
2022/01/18 09:35:13;;;;;;;41.67;16.13;;;-6.30;99.90;;;;;;5082727;28;20189;-75
2022/01/18 09:37:39;;;;;;;41.10;16.47;;;-6.80;99.90;;;;;;5073119;28;20186;-76
2022/01/18 09:40:06;;;;;;;52.73;17.50;;;-6.60;99.90;;;;;;5074119;28;20280;-76
2022/01/18 09:42:37;;;;;;;36.70;15.63;;;-6.50;99.90;;;;;;5073988;28;20318;-77
2022/01/18 09:45:09;;;;;;;40.77;17.63;;;-6.90;99.90;;;;;;5077881;28;20338;-74
2022/01/18 09:47:36;;;;;;;39.17;14.53;;;-6.40;99.90;;;;;;5094503;28;20180;-74
2022/01/18 09:50:04;;;;;;;28.97;14.00;;;-5.50;99.90;;;;;;5094479;28;20473;-77
2022/01/18 09:52:30;;;;;;;27.97;12.77;;;-6.50;99.90;;;;;;5094082;28;20639;-76
2022/01/18 09:54:56;;;;;;;32.60;13.47;;;-4.20;99.90;;;;;;5096869;28;20180;-78
2022/01/18 09:57:22;;;;;;;30.50;12.77;;;-6.70;99.90;;;;;;5090664;28;20187;-76
2022/01/18 09:59:47;;;;;;;40.63;14.33;;;-6.90;99.90;;;;;;5077844;28;20189;-76
2022/01/18 10:02:13;;;;;;;42.03;14.07;;;-7.00;99.90;;;;;;5073884;28;20203;-76
2022/01/18 10:04:48;;;;;;;30.10;14.00;;;4.50;99.90;;;;;;5077713;28;20174;-77
2022/01/18 10:07:15;;;;;;;40.97;13.63;;;7.90;99.90;;;;;;5085372;28;20552;-74
2022/01/18 10:09:41;;;;;;;35.53;12.73;;;8.20;99.90;;;;;;5098363;28;20589;-76
2022/01/18 10:12:15;;;;;;;39.57;12.90;;;8.40;99.90;;;;;;5098384;28;20207;-75
2022/01/18 10:14:58;;;;;;;35.77;12.43;;;8.50;99.90;;;;;;5097174;28;20260;-77
2022/01/18 10:17:35;;;;;;;24.07;10.17;;;8.30;99.90;;;;;;5097600;28;20640;-76
2022/01/18 10:20:08;;;;;;;24.30;10.30;;;8.80;99.90;;;;;;5086741;28;20171;-76
2022/01/18 10:22:41;;;;;;;24.13;11.03;;;8.90;99.90;;;;;;5077586;28;20609;-76
2022/01/18 10:25:26;;;;;;;41.80;10.93;;;9.20;99.90;;;;;;5081887;28;20163;-76
2022/01/18 10:27:53;;;;;;;25.63;8.90;;;9.10;99.90;;;;;;5094688;28;20214;-76
2022/01/18 10:30:32;;;;;;;27.70;10.97;;;9.10;99.90;;;;;;5093083;28;20181;-78
2022/01/18 10:33:21;;;;;;;19.73;9.23;;;9.20;99.90;;;;;;5097994;28;20173;-77
2022/01/18 10:36:12;;;;;;;24.87;9.63;;;9.20;99.90;;;;;;5097802;28;20243;-78
2022/01/18 10:38:44;;;;;;;31.53;11.23;;;9.20;99.90;;;;;;5091209;28;20210;-77
2022/01/18 10:41:27;;;;;;;21.83;9.17;;;9.20;99.90;;;;;;5086270;28;20471;-74
2022/01/18 10:44:16;;;;;;;17.93;9.60;;;9.00;99.90;;;;;;5077292;28;20223;-75
2022/01/18 10:46:48;;;;;;;21.67;8.60;;;8.90;99.90;;;;;;5077408;28;20162;-76
2022/01/18 10:49:41;;;;;;;16.43;8.03;;;9.10;99.90;;;;;;5085856;28;20163;-76
2022/01/18 10:52:12;;;;;;;28.00;8.07;;;8.00;99.90;;;;;;5097106;28;20584;-74
2022/01/18 10:54:45;;;;;;;22.30;6.67;;;-5.90;99.90;;;;;;5097469;28;20177;-77
2022/01/18 10:57:13;;;;;;;24.50;6.93;;;-6.00;99.90;;;;;;5097282;28;20182;-72
2022/01/18 10:59:41;;;;;;;23.70;10.20;;;-5.90;99.90;;;;;;5086994;28;20185;-76
2022/01/18 11:02:34;;;;;;;31.40;9.13;;;-6.20;99.90;;;;;;5094074;28;20629;-78
2022/01/18 11:05:10;;;;;;;18.70;8.37;;;-6.00;99.90;;;;;;5094803;28;20479;-78
2022/01/18 11:07:38;;;;;;;20.87;7.67;;;-6.40;99.90;;;;;;5097529;28;20229;-79
2022/01/18 11:10:06;;;;;;;16.63;6.93;;;-5.80;99.90;;;;;;5077008;28;20190;-76
2022/01/18 11:12:57;;;;;;;13.57;5.40;;;-5.50;99.90;;;;;;5076314;28;20587;-81
2022/01/18 11:15:26;;;;;;;15.23;7.23;;;-6.20;99.90;;;;;;5075948;28;20451;-80
2022/01/18 11:18:03;;;;;;;19.40;6.60;;;-4.50;99.90;;;;;;5076238;28;20190;-77
2022/01/18 11:20:37;;;;;;;18.23;7.77;;;-5.30;99.90;;;;;;5089431;28;20560;-76
2022/01/18 11:23:06;;;;;;;11.07;5.43;;;-5.60;99.90;;;;;;5097523;28;20565;-80
2022/01/18 11:25:33;;;;;;;22.40;7.27;;;-3.30;99.90;;;;;;5096609;28;20185;-75
2022/01/18 11:28:01;;;;;;;18.07;6.23;;;-5.50;99.90;;;;;;5096567;28;20170;-77
2022/01/18 11:30:31;;;;;;;13.63;5.03;;;-5.50;99.90;;;;;;5075475;28;20186;-75
2022/01/18 11:33:00;;;;;;;17.70;5.80;;;-5.20;99.90;;;;;;5076002;28;20601;-81
2022/01/18 11:35:58;;;;;;;8.93;4.40;;;-4.90;99.90;;;;;;5092665;28;20193;-80
2022/01/18 11:38:49;;;;;;;7.30;3.37;;;-5.80;99.90;;;;;;5076176;28;20221;-79
2022/01/18 11:41:23;;;;;;;16.17;4.47;;;-4.90;99.90;;;;;;5087732;28;20460;-81
2022/01/18 11:43:51;;;;;;;13.00;3.20;;;-5.20;99.90;;;;;;5087503;28;20589;-79
2022/01/18 11:46:36;;;;;;;10.73;3.27;;;-4.90;99.90;;;;;;5086807;28;20255;-79
2022/01/18 11:49:22;;;;;;;7.40;3.17;;;-5.80;99.90;;;;;;5087866;28;20174;-80
2022/01/18 11:51:58;;;;;;;7.10;2.40;;;-4.70;99.90;;;;;;5090819;28;20186;-82
2022/01/18 11:54:56;;;;;;;5.03;2.70;;;-6.40;99.90;;;;;;5087574;28;20170;-83
2022/01/18 11:57:27;;;;;;;8.43;3.13;;;-6.70;99.90;;;;;;5085676;28;20449;-84
2022/01/18 12:00:05;;;;;;;5.37;2.17;;;-6.70;99.90;;;;;;5086656;28;20178;-83
2022/01/18 12:02:41;;;;;;;12.33;3.70;;;-5.30;99.90;;;;;;5087263;28;20205;-82
2022/01/18 12:05:21;;;;;;;8.43;3.17;;;-5.00;99.90;;;;;;5087538;28;20178;-84
2022/01/18 12:07:49;;;;;;;12.30;3.60;;;-5.90;99.90;;;;;;5090910;28;20627;-81
2022/01/18 12:12:58;;;;;;;9.73;5.57;;;-4.90;99.90;;;;;;5059232;28;20586;-76
2022/01/18 12:15:26;;;;;;;7.30;3.17;;;-5.20;99.90;;;;;;5067626;28;20232;-78
2022/01/18 12:18:14;;;;;;;9.80;3.27;;;-6.40;99.90;;;;;;5081547;28;20225;-79
2022/01/18 12:20:42;;;;;;;4.37;2.40;;;-4.50;99.90;;;;;;5075350;28;20590;-74
2022/01/18 12:23:32;;;;;;;6.30;3.37;;;-6.50;99.90;;;;;;5075760;28;20290;-74
2022/01/18 12:26:31;;;;;;;5.93;3.07;;;-5.40;99.90;;;;;;5071767;28;20638;-77
2022/01/18 12:34:29;;;;;;;8.60;2.87;;;-5.40;99.90;;;;;;5074403;28;20445;-80
2022/01/18 12:37:11;;;;;;;11.43;3.33;;;-6.10;99.90;;;;;;5088182;28;20167;-78
2022/01/18 12:40:03;;;;;;;9.77;3.17;;;-6.30;99.90;;;;;;5091126;28;20190;-77
2022/01/18 12:45:10;;;;;;;14.47;5.23;;;-5.50;99.90;;;;;;5087726;28;20190;-79
2022/01/18 12:47:44;;;;;;;10.63;3.80;;;-6.00;99.90;;;;;;5075784;28;20183;-77
2022/01/18 12:50:12;;;;;;;6.10;3.90;;;-5.70;99.90;;;;;;5074620;28;20163;-77
2022/01/18 12:52:54;;;;;;;8.37;3.87;;;-5.00;99.90;;;;;;5086043;28;20261;-76
2022/01/18 12:55:38;;;;;;;11.90;4.27;;;-4.40;99.90;;;;;;5094631;28;20182;-78
2022/01/18 12:58:20;;;;;;;8.33;4.13;;;-4.90;99.90;;;;;;5079357;28;20482;-79
2022/01/18 13:00:55;;;;;;;16.23;4.73;;;-5.10;99.90;;;;;;5086995;28;20178;-78
2022/01/18 13:03:38;;;;;;;15.50;4.67;;;-4.70;99.90;;;;;;5094433;28;20190;-78
2022/01/18 13:06:15;;;;;;;12.57;5.93;;;-3.80;99.90;;;;;;5086728;28;20233;-79
2022/01/18 13:09:01;;;;;;;10.40;3.97;;;-3.80;99.90;;;;;;5077178;28;20265;-79
2022/01/18 13:11:35;;;;;;;5.10;4.07;;;-4.70;99.90;;;;;;5072957;28;20198;-78
2022/01/18 13:14:13;;;;;;;10.80;4.57;;;-3.70;99.90;;;;;;5089531;28;20182;-79
2022/01/18 13:25:12;;;;;;;7.13;4.07;;;-3.50;99.90;;;;;;5084343;28;20201;-78
2022/01/18 13:27:43;;;;;;;11.93;4.83;;;-3.50;99.90;;;;;;5079245;28;20167;-78
2022/01/18 13:30:27;;;;;;;12.17;4.23;;;-3.50;99.90;;;;;;5088609;28;20477;-80
2022/01/18 13:32:57;;;;;;;6.30;3.40;;;-3.70;99.90;;;;;;5094559;28;20170;-80
2022/01/18 13:35:26;;;;;;;8.60;4.83;;;-4.10;99.90;;;;;;5084876;28;20189;-77
2022/01/18 13:37:55;;;;;;;14.73;3.73;;;-3.80;99.90;;;;;;5080376;28;20175;-78
2022/01/18 13:40:21;;;;;;;7.63;4.13;;;-3.50;99.90;;;;;;5096815;28;20195;-79
2022/01/18 13:43:10;;;;;;;10.13;4.00;;;-4.10;99.90;;;;;;5088247;28;20781;-79
2022/01/18 13:45:40;;;;;;;16.63;4.53;;;-3.10;99.90;;;;;;5078484;28;20253;-81
2022/01/18 13:48:08;;;;;;;12.33;4.47;;;-2.90;99.90;;;;;;5082614;28;20169;-80
2022/01/18 13:50:43;;;;;;;13.77;4.07;;;-1.80;99.90;;;;;;5086199;28;20529;-80
2022/01/18 13:53:22;;;;;;;5.50;3.67;;;-2.70;99.90;;;;;;5098141;28;20158;-78
2022/01/18 13:55:57;;;;;;;7.33;3.33;;;-2.90;99.90;;;;;;5097834;28;20171;-80
2022/01/18 13:58:28;;;;;;;9.67;4.57;;;-0.70;99.90;;;;;;5077636;28;20179;-79
2022/01/18 14:01:13;;;;;;;10.07;3.03;;;-4.10;99.90;;;;;;5076484;28;20633;-78
2022/01/18 14:03:53;;;;;;;12.73;4.10;;;-4.50;99.90;;;;;;5109865;28;20208;-80
2022/01/18 14:06:32;;;;;;;12.73;4.03;;;-4.60;99.90;;;;;;5077511;28;20647;-80
2022/01/18 14:08:58;;;;;;;8.30;2.90;;;-4.30;99.90;;;;;;5083521;28;20179;-75
2022/01/18 14:11:31;;;;;;;7.10;3.10;;;-3.20;99.90;;;;;;5094540;28;20165;-82
2022/01/18 14:13:57;;;;;;;5.47;3.27;;;-3.30;99.90;;;;;;5093667;28;20265;-77